Time;durP1;ratioP1;P1;durP2;ratioP2;P2;SDS_P1;SDS_P2;PMS_P1;PMS_P2;Temp;Humidity;BMP_temperature;BMP_pressure;BME280_temperature;BME280_humidity;BME280_pressure;Samples;Min_cycle;Max_cycle;Signal;HPM_P1;HPM_P2
2023/04/09 00:01:55;;;;;;;62.33;34.47;;;7.60;99.90;;;;;;4669064;28;10000581;-69
2023/04/09 00:04:22;;;;;;;57.63;33.45;;;7.50;99.90;;;;;;5018601;28;20113;-69
2023/04/09 00:06:48;;;;;;;55.03;32.80;;;7.60;99.90;;;;;;5019988;28;20042;-69
2023/04/09 00:09:13;;;;;;;55.28;32.67;;;7.50;99.90;;;;;;5011318;28;20136;-69
2023/04/09 00:11:39;;;;;;;55.03;33.28;;;7.50;99.90;;;;;;5016751;28;20029;-69
2023/04/09 00:14:05;;;;;;;58.08;34.30;;;7.50;99.90;;;;;;5023757;28;20547;-69
2023/04/09 00:16:30;;;;;;;54.33;32.53;;;7.50;99.90;;;;;;5025803;28;20021;-69
2023/04/09 00:18:56;;;;;;;61.45;35.58;;;7.50;99.90;;;;;;5022954;28;20040;-69
2023/04/09 00:21:21;;;;;;;55.75;33.35;;;7.50;99.90;;;;;;5014868;28;20112;-69
2023/04/09 00:23:47;;;;;;;57.35;34.22;;;7.50;99.90;;;;;;5018530;28;20038;-69
2023/04/09 00:26:12;;;;;;;59.53;35.35;;;7.50;99.90;;;;;;5019368;28;20423;-68
2023/04/09 00:28:38;;;;;;;59.63;34.10;;;7.50;99.90;;;;;;5027229;28;20037;-69
2023/04/09 00:31:04;;;;;;;62.47;35.53;;;7.40;99.90;;;;;;5016748;28;20029;-68
2023/04/09 00:33:30;;;;;;;58.75;34.03;;;7.40;99.90;;;;;;5023516;28;20030;-69
2023/04/09 00:35:55;;;;;;;57.25;32.80;;;7.40;99.90;;;;;;5027508;28;20422;-68
2023/04/09 00:38:21;;;;;;;59.65;34.85;;;7.40;99.90;;;;;;5023934;28;20052;-68
2023/04/09 00:40:50;;;;;;;58.53;33.78;;;7.40;99.90;;;;;;5016650;28;20386;-68
2023/04/09 00:43:17;;;;;;;58.92;34.63;;;7.40;99.90;;;;;;5022723;28;20035;-68
2023/04/09 00:45:43;;;;;;;56.90;32.40;;;7.40;99.90;;;;;;5023150;28;20022;-69
2023/04/09 00:48:09;;;;;;;57.03;34.08;;;7.40;99.90;;;;;;5012353;28;20026;-69
2023/04/09 00:50:35;;;;;;;53.92;33.10;;;7.40;99.90;;;;;;5012224;28;20398;-69
2023/04/09 00:53:01;;;;;;;55.65;34.25;;;7.40;99.90;;;;;;5015650;28;20495;-69
2023/04/09 00:55:27;;;;;;;58.88;34.20;;;7.40;99.90;;;;;;5020479;28;20118;-69
2023/04/09 00:57:53;;;;;;;55.30;33.00;;;7.40;99.90;;;;;;5014557;28;20041;-69
2023/04/09 01:00:19;;;;;;;56.58;32.35;;;7.30;99.90;;;;;;5019830;28;20449;-69
2023/04/09 01:02:45;;;;;;;53.75;33.20;;;7.30;99.90;;;;;;5023303;28;20045;-69
2023/04/09 01:05:11;;;;;;;52.17;30.75;;;7.30;99.90;;;;;;5016881;28;20098;-69
2023/04/09 01:07:53;;;;;;;55.22;32.58;;;7.40;99.90;;;;;;5022793;28;20092;-69
2023/04/09 01:10:41;;;;;;;54.45;32.78;;;7.30;99.90;;;;;;5018818;28;20137;-69
2023/04/09 01:13:10;;;;;;;55.22;34.08;;;7.40;99.90;;;;;;5014288;28;20128;-69
2023/04/09 01:15:47;;;;;;;59.08;33.78;;;7.40;99.90;;;;;;5010252;28;20022;-69
2023/04/09 01:18:25;;;;;;;59.55;34.13;;;7.40;99.90;;;;;;5019078;28;20496;-69
2023/04/09 01:20:59;;;;;;;55.55;32.58;;;7.30;99.90;;;;;;5012354;28;20117;-69
2023/04/09 01:23:36;;;;;;;62.25;35.22;;;7.30;99.90;;;;;;5014524;28;20049;-69
2023/04/09 01:26:29;;;;;;;54.03;33.55;;;7.30;99.90;;;;;;5010831;28;20056;-68
2023/04/09 01:28:56;;;;;;;55.15;33.28;;;7.30;99.90;;;;;;5016847;28;20022;-69
2023/04/09 01:31:30;;;;;;;54.47;32.53;;;7.30;99.90;;;;;;5009209;28;20033;-69
2023/04/09 01:33:57;;;;;;;54.28;33.42;;;7.30;99.90;;;;;;5013796;28;20017;-69
2023/04/09 01:36:25;;;;;;;54.63;33.55;;;7.30;99.90;;;;;;5022874;28;20025;-69
2023/04/09 01:38:52;;;;;;;56.33;32.95;;;7.30;99.90;;;;;;5024479;28;20114;-69
2023/04/09 01:41:20;;;;;;;56.00;33.05;;;7.20;99.90;;;;;;5013520;28;20100;-69
2023/04/09 01:43:50;;;;;;;56.72;33.50;;;7.20;99.90;;;;;;5025109;28;20090;-69
2023/04/09 01:46:21;;;;;;;53.72;31.83;;;7.20;99.90;;;;;;5018207;28;20045;-69
2023/04/09 01:48:47;;;;;;;54.75;32.92;;;7.10;99.90;;;;;;5017556;28;20139;-68
2023/04/09 01:51:14;;;;;;;53.30;32.22;;;7.10;99.90;;;;;;5024149;28;20029;-68
2023/04/09 01:53:40;;;;;;;57.80;35.08;;;7.20;99.90;;;;;;5014361;28;20021;-68
2023/04/09 01:56:07;;;;;;;57.15;35.08;;;7.10;99.90;;;;;;5020674;28;20486;-69
2023/04/09 01:58:35;;;;;;;55.20;33.30;;;7.10;99.90;;;;;;5011509;28;20438;-69
2023/04/09 02:01:10;;;;;;;59.42;34.72;;;7.10;99.90;;;;;;5019721;28;20402;-69
2023/04/09 02:03:47;;;;;;;56.45;33.42;;;7.10;99.90;;;;;;5012700;28;20026;-69
2023/04/09 02:06:33;;;;;;;55.10;33.97;;;7.00;99.90;;;;;;5017909;28;20033;-69
2023/04/09 02:09:01;;;;;;;60.95;35.58;;;7.10;99.90;;;;;;5015687;28;20501;-69
2023/04/09 02:11:29;;;;;;;58.08;34.97;;;7.00;99.90;;;;;;5018476;28;20447;-68
2023/04/09 02:13:56;;;;;;;60.25;35.88;;;7.00;99.90;;;;;;5011983;28;20038;-69
2023/04/09 02:16:22;;;;;;;63.20;36.70;;;7.00;99.90;;;;;;5011581;28;20113;-68
2023/04/09 02:18:52;;;;;;;63.72;38.08;;;7.00;99.90;;;;;;5010900;28;20050;-68
2023/04/09 02:21:18;;;;;;;60.03;35.22;;;7.00;99.90;;;;;;5011671;28;20029;-69
2023/04/09 02:23:44;;;;;;;61.75;36.00;;;6.90;99.90;;;;;;5015670;28;20036;-69
2023/04/09 02:26:09;;;;;;;62.10;36.35;;;6.90;99.90;;;;;;5020426;28;20133;-69
2023/04/09 02:28:35;;;;;;;64.43;37.15;;;6.90;99.90;;;;;;5010817;28;20148;-68
2023/04/09 02:31:00;;;;;;;60.30;36.58;;;6.90;99.90;;;;;;5014399;28;20087;-69
2023/04/09 02:33:26;;;;;;;61.97;36.88;;;6.90;99.90;;;;;;5008413;28;20021;-69
2023/04/09 02:35:51;;;;;;;63.78;37.85;;;6.90;99.90;;;;;;5009943;28;20029;-69
2023/04/09 02:38:17;;;;;;;68.60;39.35;;;6.90;99.90;;;;;;5009734;28;20029;-69
2023/04/09 02:40:43;;;;;;;68.15;39.22;;;6.90;99.90;;;;;;5011555;28;20080;-69
2023/04/09 02:43:09;;;;;;;67.00;38.00;;;6.90;99.90;;;;;;5007080;28;20042;-68
2023/04/09 02:45:35;;;;;;;62.15;37.75;;;6.90;99.90;;;;;;5011843;28;20033;-69
2023/04/09 02:48:00;;;;;;;66.95;37.08;;;6.90;99.90;;;;;;5017464;28;20510;-69
2023/04/09 02:50:26;;;;;;;65.18;39.17;;;6.90;99.90;;;;;;5021642;28;20474;-69
2023/04/09 02:52:52;;;;;;;65.57;39.03;;;6.90;99.90;;;;;;5006500;28;20051;-69
2023/04/09 02:55:18;;;;;;;63.47;38.05;;;6.90;99.90;;;;;;5009288;28;20025;-69
2023/04/09 02:57:43;;;;;;;66.65;38.55;;;6.90;99.90;;;;;;5018888;28;20087;-68
2023/04/09 03:00:10;;;;;;;62.63;37.22;;;6.90;99.90;;;;;;5021840;28;20030;-68
2023/04/09 03:02:35;;;;;;;62.20;37.25;;;6.80;99.90;;;;;;5019521;28;20033;-68
2023/04/09 03:05:01;;;;;;;69.57;40.30;;;6.80;99.90;;;;;;5014293;28;20045;-69
2023/04/09 03:07:27;;;;;;;65.07;37.90;;;6.80;99.90;;;;;;5017649;28;20091;-68
2023/04/09 03:09:52;;;;;;;70.57;40.10;;;6.80;99.90;;;;;;5006435;28;20116;-68
2023/04/09 03:12:18;;;;;;;64.97;37.17;;;6.90;99.90;;;;;;5022899;28;20026;-68
2023/04/09 03:14:43;;;;;;;67.50;40.15;;;6.80;99.90;;;;;;5024422;28;20026;-69
2023/04/09 03:17:09;;;;;;;65.10;40.33;;;6.90;99.90;;;;;;5016675;28;20375;-69
2023/04/09 03:19:35;;;;;;;66.13;39.17;;;6.80;99.90;;;;;;5015174;28;20036;-68
2023/04/09 03:22:00;;;;;;;67.30;38.85;;;6.80;99.90;;;;;;5013912;28;20698;-68
2023/04/09 03:24:26;;;;;;;63.70;38.72;;;6.80;99.90;;;;;;5014330;28;20041;-68
2023/04/09 03:26:51;;;;;;;67.88;39.45;;;6.80;99.90;;;;;;5012060;28;20038;-68
2023/04/09 03:29:17;;;;;;;65.72;39.20;;;6.80;99.90;;;;;;5015448;28;20057;-69
2023/04/09 03:31:42;;;;;;;70.15;40.03;;;6.80;99.90;;;;;;5005223;28;20036;-69
2023/04/09 03:34:08;;;;;;;66.57;40.28;;;6.80;99.90;;;;;;4993732;28;20042;-68
2023/04/09 03:36:34;;;;;;;65.80;38.10;;;6.80;99.90;;;;;;5003786;28;20026;-69
2023/04/09 03:39:00;;;;;;;65.97;38.35;;;;;;;;;;5002754;28;20661;-67
2023/04/09 03:41:26;;;;;;;67.93;38.22;;;;;;;;;;5029722;28;20043;-69
2023/04/09 03:43:52;;;;;;;68.55;39.42;;;;;;;;;;5019443;28;20101;-69
2023/04/09 03:46:18;;;;;;;66.45;38.72;;;6.80;99.90;;;;;;5010637;28;20030;-70
2023/04/09 03:48:44;;;;;;;66.88;38.78;;;6.80;99.90;;;;;;5030132;28;20033;-69
2023/04/09 03:51:11;;;;;;;64.53;37.85;;;6.70;99.90;;;;;;5021489;28;20053;-70
2023/04/09 03:53:37;;;;;;;70.63;39.75;;;6.70;99.90;;;;;;5030637;28;20029;-70
2023/04/09 03:56:03;;;;;;;65.47;38.75;;;6.70;99.90;;;;;;5022128;28;20071;-69
2023/04/09 03:58:28;;;;;;;67.55;38.53;;;6.70;99.90;;;;;;5030826;28;20471;-69
2023/04/09 04:00:54;;;;;;;68.07;39.45;;;6.70;99.90;;;;;;5020579;28;20037;-69
2023/04/09 04:03:19;;;;;;;70.82;40.00;;;6.70;99.90;;;;;;5010436;28;20057;-69
2023/04/09 04:05:45;;;;;;;69.13;39.38;;;6.70;99.90;;;;;;5018742;28;20442;-70
2023/04/09 04:08:11;;;;;;;68.72;38.17;;;6.70;99.90;;;;;;5026403;28;20120;-69
2023/04/09 04:10:36;;;;;;;68.63;38.75;;;6.60;99.90;;;;;;5029665;28;20034;-69
2023/04/09 04:13:02;;;;;;;68.18;39.22;;;6.60;99.90;;;;;;5018860;28;20061;-69
2023/04/09 04:15:28;;;;;;;69.43;39.97;;;6.60;99.90;;;;;;5023183;28;20382;-69
2023/04/09 04:17:54;;;;;;;64.97;38.65;;;6.70;99.90;;;;;;5017177;28;20030;-69
2023/04/09 04:20:20;;;;;;;69.60;39.60;;;6.60;99.90;;;;;;5016490;28;20046;-69
2023/04/09 04:22:45;;;;;;;67.45;38.97;;;6.60;99.90;;;;;;5009963;28;20580;-69
2023/04/09 04:25:11;;;;;;;65.93;39.05;;;6.60;99.90;;;;;;5031246;28;20075;-69
2023/04/09 04:27:40;;;;;;;67.88;39.25;;;6.60;99.90;;;;;;5031171;28;20401;-70
2023/04/09 04:30:06;;;;;;;66.30;38.28;;;6.60;99.90;;;;;;5018736;28;20030;-69
2023/04/09 04:32:31;;;;;;;63.22;37.88;;;6.60;99.90;;;;;;5020523;28;20030;-69
2023/04/09 04:34:57;;;;;;;67.28;39.75;;;6.60;99.90;;;;;;5013639;28;20549;-69
2023/04/09 04:37:23;;;;;;;69.97;40.38;;;6.60;99.90;;;;;;5012698;28;20065;-69
2023/04/09 04:39:48;;;;;;;67.18;40.33;;;6.60;99.90;;;;;;5010655;28;20022;-69
2023/04/09 04:42:14;;;;;;;69.50;39.58;;;6.60;99.90;;;;;;5015521;28;20037;-69
2023/04/09 04:44:39;;;;;;;67.97;39.47;;;6.60;99.90;;;;;;5024244;28;20032;-69
2023/04/09 04:47:05;;;;;;;67.07;38.08;;;6.50;99.90;;;;;;5022341;28;20112;-69
2023/04/09 04:49:30;;;;;;;70.20;39.92;;;6.50;99.90;;;;;;5022298;28;20029;-69
2023/04/09 04:51:56;;;;;;;68.60;39.67;;;6.50;99.90;;;;;;5018903;28;20378;-69
2023/04/09 04:54:21;;;;;;;69.25;40.25;;;6.50;99.90;;;;;;5016820;28;20175;-69
2023/04/09 04:56:47;;;;;;;71.15;41.03;;;6.50;99.90;;;;;;5013961;28;20029;-69
2023/04/09 04:59:12;;;;;;;74.50;39.63;;;6.50;99.90;;;;;;5023972;28;20038;-69
2023/04/09 05:01:38;;;;;;;68.57;39.85;;;6.50;99.90;;;;;;5023025;28;20113;-70
2023/04/09 05:04:04;;;;;;;66.28;39.22;;;6.50;99.90;;;;;;5017039;28;20387;-69
2023/04/09 05:06:30;;;;;;;69.57;40.92;;;6.50;99.90;;;;;;5012869;28;23976;-69
2023/04/09 05:08:57;;;;;;;70.55;40.97;;;6.50;99.90;;;;;;5015628;28;20103;-69
2023/04/09 05:11:23;;;;;;;72.28;41.00;;;6.50;99.90;;;;;;5029046;28;20111;-69
2023/04/09 05:13:49;;;;;;;74.40;42.15;;;6.50;99.90;;;;;;5026177;28;20018;-69
2023/04/09 05:16:17;;;;;;;74.13;42.25;;;6.50;99.90;;;;;;5009693;28;20045;-69
2023/04/09 05:18:43;;;;;;;72.40;40.83;;;6.50;99.90;;;;;;5019935;28;20036;-69
2023/04/09 05:21:08;;;;;;;78.53;43.05;;;6.50;99.90;;;;;;5029179;28;20018;-70
2023/04/09 05:23:34;;;;;;;73.18;41.78;;;6.50;99.90;;;;;;5022461;28;20022;-70
2023/04/09 05:25:59;;;;;;;75.60;41.83;;;6.50;99.90;;;;;;5019796;28;20054;-69
2023/04/09 05:28:25;;;;;;;69.82;41.15;;;6.50;99.90;;;;;;5024200;28;20029;-69
2023/04/09 05:30:50;;;;;;;69.18;40.35;;;6.50;99.90;;;;;;5022098;28;20529;-69
2023/04/09 05:33:16;;;;;;;73.80;42.53;;;6.50;99.90;;;;;;5027759;28;20022;-69
2023/04/09 05:35:41;;;;;;;74.25;41.10;;;6.60;99.90;;;;;;5017701;28;20044;-69
2023/04/09 05:38:07;;;;;;;72.47;40.80;;;6.60;99.90;;;;;;5014282;28;20030;-69
2023/04/09 05:40:34;;;;;;;68.53;40.28;;;6.60;99.90;;;;;;5027581;28;20033;-69
2023/04/09 05:42:59;;;;;;;67.38;39.50;;;6.60;99.90;;;;;;5030325;28;20034;-69
2023/04/09 05:45:27;;;;;;;67.82;39.20;;;6.70;99.90;;;;;;5024727;28;20040;-69
2023/04/09 05:47:53;;;;;;;67.30;39.00;;;6.70;99.90;;;;;;5029300;28;20064;-69
2023/04/09 05:50:19;;;;;;;63.78;36.88;;;6.80;99.90;;;;;;5014672;28;20057;-69
2023/04/09 05:52:45;;;;;;;66.07;38.53;;;6.80;99.90;;;;;;5013411;28;20029;-69
2023/04/09 05:55:10;;;;;;;67.35;38.45;;;6.90;99.90;;;;;;5013453;28;20099;-69
2023/04/09 05:57:36;;;;;;;64.63;36.42;;;6.90;99.90;;;;;;5028959;28;20030;-69
2023/04/09 06:00:02;;;;;;;67.25;38.72;;;6.90;99.90;;;;;;5022079;28;20025;-69
2023/04/09 06:02:28;;;;;;;62.97;37.15;;;7.00;99.90;;;;;;5022443;28;20091;-69
2023/04/09 06:04:53;;;;;;;63.35;37.30;;;7.00;99.90;;;;;;5021238;28;20041;-70
2023/04/09 06:07:19;;;;;;;66.13;38.40;;;7.10;99.90;;;;;;5019861;28;20105;-69
2023/04/09 06:09:48;;;;;;;63.40;37.95;;;7.10;99.90;;;;;;5023347;28;20120;-69
2023/04/09 06:12:14;;;;;;;62.80;37.85;;;7.10;99.90;;;;;;5017969;28;20038;-69
2023/04/09 06:14:40;;;;;;;63.25;37.55;;;7.10;99.90;;;;;;5017632;28;20049;-69
2023/04/09 06:17:05;;;;;;;62.47;37.42;;;7.20;99.90;;;;;;5024361;28;20052;-69
2023/04/09 06:19:31;;;;;;;61.38;36.53;;;7.30;99.90;;;;;;5015462;28;20072;-69
2023/04/09 06:21:56;;;;;;;62.83;37.33;;;7.30;99.90;;;;;;5024858;28;20029;-69
2023/04/09 06:24:22;;;;;;;63.88;37.97;;;7.30;99.90;;;;;;5011688;28;20597;-69
2023/04/09 06:26:48;;;;;;;62.15;36.17;;;7.40;99.90;;;;;;5018387;28;20041;-70
2023/04/09 06:29:14;;;;;;;63.55;37.58;;;7.40;99.90;;;;;;5020295;28;20041;-69
2023/04/09 06:31:39;;;;;;;63.95;36.83;;;7.50;99.90;;;;;;5015880;28;20087;-69
2023/04/09 06:34:05;;;;;;;63.33;38.10;;;7.50;99.90;;;;;;5016756;28;20022;-70
2023/04/09 06:36:31;;;;;;;60.22;36.60;;;7.60;99.90;;;;;;5020516;28;20034;-70
2023/04/09 06:38:58;;;;;;;61.75;37.13;;;7.60;99.90;;;;;;5018363;28;20076;-70
2023/04/09 06:41:23;;;;;;;59.50;36.95;;;7.70;99.90;;;;;;5016466;28;20068;-69
2023/04/09 06:43:49;;;;;;;62.53;36.67;;;7.70;99.90;;;;;;5014312;28;20056;-69
2023/04/09 06:46:17;;;;;;;58.92;35.85;;;7.80;99.90;;;;;;5013432;28;20477;-69
2023/04/09 06:48:43;;;;;;;60.97;36.08;;;7.80;99.90;;;;;;5014138;28;20042;-69
2023/04/09 06:51:10;;;;;;;59.97;36.83;;;7.90;99.90;;;;;;5009913;28;20145;-69
2023/04/09 06:53:37;;;;;;;63.28;37.58;;;8.00;99.90;;;;;;5021989;28;20112;-69
2023/04/09 06:56:03;;;;;;;58.88;36.00;;;8.10;99.90;;;;;;5012159;28;20109;-69
2023/04/09 06:58:28;;;;;;;60.33;35.97;;;8.10;99.90;;;;;;5015838;28;20108;-69
2023/04/09 07:00:54;;;;;;;60.13;35.28;;;8.20;99.90;;;;;;5010360;28;20044;-69
2023/04/09 07:03:19;;;;;;;58.17;34.70;;;8.30;99.90;;;;;;5015147;28;20033;-69
2023/04/09 07:05:46;;;;;;;61.40;35.28;;;8.40;99.90;;;;;;5018801;28;20545;-69
2023/04/09 07:08:11;;;;;;;58.75;35.53;;;8.50;99.90;;;;;;5010420;28;20418;-69
2023/04/09 07:10:37;;;;;;;56.42;34.33;;;8.60;99.90;;;;;;5014126;28;20030;-69
2023/04/09 07:13:03;;;;;;;55.15;32.75;;;8.70;99.90;;;;;;5025729;28;20021;-69
2023/04/09 07:15:28;;;;;;;55.25;33.80;;;8.70;99.90;;;;;;5016825;28;20030;-69
2023/04/09 07:17:54;;;;;;;49.90;30.60;;;8.80;99.90;;;;;;5020701;28;20674;-69
2023/04/09 07:20:19;;;;;;;52.75;32.53;;;8.80;99.90;;;;;;5013668;28;20033;-69
2023/04/09 07:22:45;;;;;;;47.85;30.40;;;8.90;99.90;;;;;;5009686;28;20148;-69
2023/04/09 07:25:11;;;;;;;51.38;30.92;;;9.00;99.90;;;;;;5017429;28;20060;-69
2023/04/09 07:27:36;;;;;;;51.35;31.08;;;9.10;99.90;;;;;;5016879;28;20030;-70
2023/04/09 07:30:03;;;;;;;51.83;30.67;;;9.10;99.90;;;;;;5015528;28;20037;-69
2023/04/09 07:32:28;;;;;;;48.78;30.00;;;9.10;99.90;;;;;;5006948;28;20112;-70
2023/04/09 07:34:54;;;;;;;49.42;30.70;;;9.10;99.90;;;;;;5017033;28;20064;-69
2023/04/09 07:37:20;;;;;;;48.10;30.17;;;9.10;99.90;;;;;;5017436;28;20364;-69
2023/04/09 07:39:46;;;;;;;47.65;28.77;;;9.10;99.90;;;;;;5012894;28;20604;-70
2023/04/09 07:42:12;;;;;;;48.88;29.05;;;9.20;99.90;;;;;;5014089;28;20477;-69
2023/04/09 07:44:38;;;;;;;47.72;29.17;;;9.30;99.90;;;;;;5021588;28;20090;-70
2023/04/09 07:47:05;;;;;;;47.28;29.05;;;9.30;99.90;;;;;;5005134;28;20125;-68
2023/04/09 07:49:31;;;;;;;49.20;30.52;;;9.50;99.90;;;;;;5013340;28;20607;-68
2023/04/09 07:51:58;;;;;;;50.97;29.98;;;9.60;99.90;;;;;;5007872;28;20606;-68
2023/04/09 07:54:24;;;;;;;51.05;30.25;;;9.80;99.90;;;;;;5008184;28;20117;-68
2023/04/09 07:56:50;;;;;;;50.08;30.02;;;10.00;99.90;;;;;;4998290;28;20155;-67
2023/04/09 07:59:15;;;;;;;47.78;28.40;;;10.10;99.90;;;;;;5012164;28;20044;-68
2023/04/09 08:01:42;;;;;;;45.78;28.17;;;10.10;99.90;;;;;;5004740;28;20485;-68
2023/04/09 08:04:08;;;;;;;45.30;28.30;;;10.20;99.90;;;;;;5010432;28;20038;-68
2023/04/09 08:06:34;;;;;;;43.88;28.17;;;10.30;99.90;;;;;;5008693;28;20517;-68
2023/04/09 08:09:00;;;;;;;45.15;28.58;;;;;;;;;;4662670;28;10000497;-68
2023/04/09 08:11:26;;;;;;;44.22;26.67;;;;;;;;;;5009003;28;20036;-68
2023/04/09 08:13:52;;;;;;;42.60;26.77;;;;;;;;;;5006762;28;20458;-68
2023/04/09 08:16:20;;;;;;;41.45;26.67;;;;;;;;;;5011691;28;20033;-68
2023/04/09 08:18:46;;;;;;;40.17;25.90;;;;;;;;;;5015747;28;20022;-68
2023/04/09 08:21:12;;;;;;;41.22;24.80;;;;;;;;;;5019700;28;20095;-68
2023/04/09 08:23:37;;;;;;;39.72;25.25;;;10.70;99.90;;;;;;5018065;28;20033;-68
2023/04/09 08:26:03;;;;;;;38.00;24.65;;;10.70;99.90;;;;;;5009072;28;20034;-68
2023/04/09 08:28:29;;;;;;;39.50;24.40;;;10.90;99.90;;;;;;5012442;28;20034;-68
2023/04/09 08:30:54;;;;;;;39.03;24.27;;;10.90;99.90;;;;;;5014381;28;20470;-69
2023/04/09 08:33:20;;;;;;;36.35;23.75;;;11.10;99.90;;;;;;5010946;28;20141;-68
2023/04/09 08:35:45;;;;;;;36.15;22.80;;;11.20;99.90;;;;;;5013812;28;20032;-69
2023/04/09 08:38:11;;;;;;;35.42;23.27;;;11.30;99.90;;;;;;5015427;28;20149;-68
2023/04/09 08:40:37;;;;;;;38.75;24.90;;;11.30;99.90;;;;;;5010514;28;20049;-69
2023/04/09 08:43:06;;;;;;;37.95;23.70;;;11.30;99.90;;;;;;5022954;28;20394;-68
2023/04/09 08:45:32;;;;;;;38.42;24.38;;;11.30;99.90;;;;;;5011504;28;20034;-68
2023/04/09 08:48:02;;;;;;;36.67;24.35;;;11.30;99.90;;;;;;5009036;28;20103;-70
2023/04/09 08:50:35;;;;;;;36.28;24.30;;;11.30;99.90;;;;;;5009504;28;20030;-70
2023/04/09 08:53:03;;;;;;;35.90;23.55;;;11.30;99.90;;;;;;5014915;28;20034;-71
2023/04/09 08:55:30;;;;;;;35.42;23.48;;;11.30;99.90;;;;;;5010196;28;20037;-71
2023/04/09 08:57:57;;;;;;;32.92;22.48;;;11.40;99.90;;;;;;5009772;28;20686;-71
2023/04/09 09:00:23;;;;;;;33.78;22.63;;;11.40;99.90;;;;;;5007372;28;20379;-71
2023/04/09 09:03:07;;;;;;;33.70;22.83;;;11.30;99.90;;;;;;5004477;28;20040;-71
2023/04/09 09:05:39;;;;;;;35.33;22.88;;;11.30;99.90;;;;;;5009922;28;20705;-71
2023/04/09 09:08:10;;;;;;;35.00;23.58;;;11.40;99.90;;;;;;5002942;28;20038;-71
2023/04/09 09:10:44;;;;;;;31.95;22.20;;;11.50;99.90;;;;;;5006395;28;20034;-71
2023/04/09 09:13:17;;;;;;;30.85;21.02;;;11.50;99.90;;;;;;5008044;28;20479;-71
2023/04/09 09:15:43;;;;;;;37.67;24.23;;;11.50;99.90;;;;;;5011322;28;20026;-70
2023/04/09 09:18:08;;;;;;;32.60;21.85;;;11.50;99.90;;;;;;5002912;28;20030;-71
2023/04/09 09:20:34;;;;;;;34.28;22.73;;;11.40;99.90;;;;;;5007214;28;20518;-71
2023/04/09 09:23:01;;;;;;;34.22;22.77;;;11.30;99.90;;;;;;5016862;28;20041;-71
2023/04/09 09:25:27;;;;;;;35.53;24.48;;;11.40;99.90;;;;;;5012600;28;20081;-71
2023/04/09 09:27:53;;;;;;;34.72;22.45;;;11.40;99.90;;;;;;5005221;28;20551;-71
2023/04/09 09:30:22;;;;;;;34.65;23.05;;;11.50;99.90;;;;;;5010216;28;20022;-71
2023/04/09 09:32:56;;;;;;;33.95;22.65;;;11.60;99.90;;;;;;4999136;28;20589;-71
2023/04/09 09:35:22;;;;;;;34.25;22.48;;;11.80;99.90;;;;;;5003862;28;20088;-71
2023/04/09 09:38:04;;;;;;;33.38;22.67;;;12.00;99.90;;;;;;5015898;28;20049;-71
2023/04/09 09:40:29;;;;;;;30.92;21.23;;;12.10;99.90;;;;;;5005525;28;20401;-71
2023/04/09 09:42:56;;;;;;;31.63;21.60;;;12.20;99.90;;;;;;5011011;28;20036;-71
2023/04/09 09:45:23;;;;;;;35.88;23.00;;;12.40;99.90;;;;;;5017424;28;20490;-70
2023/04/09 09:47:50;;;;;;;33.15;21.80;;;12.60;99.90;;;;;;5004203;28;20090;-70
2023/04/09 09:50:15;;;;;;;35.20;22.08;;;12.60;99.90;;;;;;5013827;28;20116;-71
2023/04/09 09:52:44;;;;;;;35.50;24.02;;;12.70;99.90;;;;;;5009958;28;20125;-71
2023/04/09 09:55:14;;;;;;;34.17;22.23;;;12.80;99.90;;;;;;5000039;28;20045;-71
2023/04/09 09:57:42;;;;;;;38.53;24.33;;;12.90;99.90;;;;;;5010287;28;20034;-70
2023/04/09 10:00:13;;;;;;;30.95;20.20;;;13.00;99.90;;;;;;5016764;28;20041;-71
2023/04/09 10:02:56;;;;;;;27.00;18.60;;;12.90;99.90;;;;;;5007581;28;20445;-70
2023/04/09 10:05:25;;;;;;;33.22;22.17;;;12.80;99.90;;;;;;5013603;28;20035;-70
2023/04/09 10:07:56;;;;;;;34.67;23.05;;;12.70;99.90;;;;;;5005689;28;20094;-70
2023/04/09 10:10:23;;;;;;;36.70;25.17;;;12.60;99.90;;;;;;5008210;28;20083;-71
2023/04/09 10:12:50;;;;;;;38.92;25.20;;;12.60;99.90;;;;;;5012926;28;20036;-70
2023/04/09 10:15:17;;;;;;;38.08;24.48;;;12.40;99.90;;;;;;5016756;28;20034;-71
2023/04/09 10:17:43;;;;;;;34.33;23.00;;;12.40;99.90;;;;;;5011814;28;20033;-70
2023/04/09 10:20:21;;;;;;;35.55;23.55;;;12.10;99.90;;;;;;5002224;28;20092;-71
2023/04/09 10:22:50;;;;;;;40.13;26.17;;;11.90;99.90;;;;;;5006940;28;20033;-71
2023/04/09 10:25:16;;;;;;;34.53;23.30;;;11.80;99.90;;;;;;5009360;28;20356;-71
2023/04/09 10:27:47;;;;;;;33.25;22.52;;;11.70;99.90;;;;;;5016453;28;20061;-71
2023/04/09 10:30:32;;;;;;;34.45;23.38;;;11.60;99.90;;;;;;5014804;28;20081;-71
2023/04/09 10:33:12;;;;;;;33.30;22.60;;;11.50;99.90;;;;;;5010146;28;20492;-70
2023/04/09 10:35:39;;;;;;;35.03;23.52;;;11.50;99.90;;;;;;5012251;28;20132;-71
2023/04/09 10:38:08;;;;;;;35.50;24.10;;;11.50;99.90;;;;;;5008813;28;20154;-70
2023/04/09 10:40:39;;;;;;;38.63;25.58;;;11.50;99.90;;;;;;5008970;28;20060;-71
2023/04/09 10:43:06;;;;;;;37.58;24.73;;;11.60;99.90;;;;;;5004628;28;20690;-70
2023/04/09 10:45:40;;;;;;;37.15;24.30;;;11.70;99.90;;;;;;5001828;28;20061;-69
2023/04/09 10:48:13;;;;;;;32.47;22.48;;;11.80;99.90;;;;;;5006006;28;20734;-70
2023/04/09 10:50:41;;;;;;;35.80;22.98;;;11.90;99.90;;;;;;5007496;28;20040;-70
2023/04/09 10:53:06;;;;;;;34.33;22.98;;;11.90;99.90;;;;;;5002377;28;20061;-71
2023/04/09 10:55:46;;;;;;;33.60;23.27;;;12.00;99.90;;;;;;5012140;28;20080;-70
2023/04/09 10:58:12;;;;;;;33.08;22.58;;;12.10;99.90;;;;;;5014818;28;20029;-70
2023/04/09 11:00:42;;;;;;;33.72;21.50;;;12.20;99.90;;;;;;5002797;28;20092;-70
2023/04/09 11:03:20;;;;;;;33.30;21.67;;;12.40;99.90;;;;;;5003645;28;20335;-70
2023/04/09 11:05:59;;;;;;;32.92;22.20;;;12.50;99.90;;;;;;5003336;28;20099;-70
2023/04/09 11:08:29;;;;;;;32.88;21.42;;;12.60;99.90;;;;;;5004199;28;20656;-70
2023/04/09 11:10:57;;;;;;;32.60;21.88;;;12.70;99.90;;;;;;5004918;28;20544;-71
2023/04/09 11:13:23;;;;;;;32.00;21.92;;;12.80;99.90;;;;;;5007005;28;20163;-71
2023/04/09 11:15:49;;;;;;;34.30;23.13;;;12.90;99.90;;;;;;5010986;28;20603;-71
2023/04/09 11:18:20;;;;;;;35.42;23.05;;;12.90;99.90;;;;;;5005929;28;20162;-71
2023/04/09 11:20:46;;;;;;;31.42;21.27;;;13.00;99.90;;;;;;5004355;28;20052;-71
2023/04/09 11:23:13;;;;;;;31.17;21.23;;;13.00;99.90;;;;;;5010408;28;20033;-71
2023/04/09 11:25:38;;;;;;;29.90;20.17;;;13.10;99.90;;;;;;5007366;28;20068;-70
2023/04/09 11:28:06;;;;;;;31.35;21.20;;;13.20;99.90;;;;;;5010307;28;20065;-70
2023/04/09 11:30:33;;;;;;;28.63;19.77;;;;;;;;;;5004274;28;20038;-70
2023/04/09 11:32:59;;;;;;;29.48;19.75;;;13.50;99.90;;;;;;5014823;28;20033;-70
2023/04/09 11:35:25;;;;;;;28.85;19.60;;;13.60;99.90;;;;;;5012689;28;20064;-71
2023/04/09 11:37:51;;;;;;;26.48;18.75;;;13.60;99.90;;;;;;5019161;28;20061;-71
2023/04/09 11:40:24;;;;;;;30.13;20.63;;;13.60;99.90;;;;;;5005294;28;20132;-70
2023/04/09 11:42:51;;;;;;;;;;;13.60;99.90;;;;;;5010946;28;20025;-70
2023/04/09 11:45:18;;;;;;;27.38;18.27;;;13.40;99.90;;;;;;5008161;28;20296;-70
2023/04/09 11:47:45;;;;;;;30.77;20.73;;;13.40;99.90;;;;;;5003939;28;20025;-70
2023/04/09 11:50:12;;;;;;;27.90;19.75;;;13.40;99.90;;;;;;5006333;28;20057;-70
2023/04/09 11:52:39;;;;;;;28.13;19.67;;;13.40;99.90;;;;;;5006315;28;20049;-69
2023/04/09 11:55:05;;;;;;;27.85;19.30;;;13.40;99.90;;;;;;5003507;28;20072;-71
2023/04/09 11:57:44;;;;;;;30.40;19.95;;;13.40;99.90;;;;;;5012200;28;20026;-70
2023/04/09 12:00:13;;;;;;;26.60;18.67;;;13.50;99.90;;;;;;5015612;28;20037;-70
2023/04/09 12:02:48;;;;;;;25.20;18.15;;;13.50;99.90;;;;;;5004559;28;20123;-71
2023/04/09 12:05:24;;;;;;;24.23;17.52;;;13.60;99.90;;;;;;5006788;28;20036;-70
2023/04/09 12:07:51;;;;;;;22.92;15.68;;;13.70;99.90;;;;;;5004105;28;20033;-69
2023/04/09 12:10:17;;;;;;;25.13;17.73;;;13.80;99.90;;;;;;5005646;28;20125;-70
2023/04/09 12:12:43;;;;;;;25.50;17.35;;;;;;;;;;5008204;28;20033;-70
2023/04/09 12:15:11;;;;;;;28.05;19.17;;;;;;;;;;5010863;28;20113;-69
2023/04/09 12:17:37;;;;;;;27.13;17.90;;;;;;;;;;5014848;28;20095;-69
2023/04/09 12:20:03;;;;;;;24.95;17.90;;;;;;;;;;5007937;28;20602;-69
2023/04/09 12:22:29;;;;;;;27.33;18.02;;;;;;;;;;5010581;28;20040;-69
2023/04/09 12:24:55;;;;;;;25.00;17.90;;;;;;;;;;4998001;28;20033;-69
2023/04/09 12:27:21;;;;;;;24.33;17.48;;;;;;;;;;5009141;28;20042;-68
2023/04/09 12:29:47;;;;;;;26.98;18.17;;;;;;;;;;5009762;28;20437;-70
2023/04/09 12:32:13;;;;;;;27.55;19.02;;;;;;;;;;5014627;28;20026;-70
2023/04/09 12:34:39;;;;;;;26.02;18.20;;;;;;;;;;5016887;28;20631;-70
2023/04/09 12:37:05;;;;;;;25.17;17.60;;;;;;;;;;5019317;28;20612;-69
2023/04/09 12:39:31;;;;;;;22.95;16.27;;;;;;;;;;5018846;28;20025;-70
2023/04/09 12:41:57;;;;;;;23.77;17.15;;;;;;;;;;5008854;28;20379;-69